sensor_id;sensor_type;location;lat;lon;timestamp;P1;durP1;ratioP1;P2;durP2;ratioP2
72205;SDS011;60111;48.286;7.812;2023-08-12T00:00:20;5.55;;;3.75;;
72205;SDS011;60111;48.286;7.812;2023-08-12T00:02:53;5.55;;;3.75;;
72205;SDS011;60111;48.286;7.812;2023-08-12T00:05:25;5.27;;;3.63;;
72205;SDS011;60111;48.286;7.812;2023-08-12T00:07:58;5.12;;;3.80;;
72205;SDS011;60111;48.286;7.812;2023-08-12T00:10:31;5.83;;;3.67;;
72205;SDS011;60111;48.286;7.812;2023-08-12T00:13:03;4.22;;;3.62;;
72205;SDS011;60111;48.286;7.812;2023-08-12T00:15:36;6.65;;;3.70;;
72205;SDS011;60111;48.286;7.812;2023-08-12T00:18:08;7.35;;;3.50;;
72205;SDS011;60111;48.286;7.812;2023-08-12T00:20:41;6.20;;;3.22;;
72205;SDS011;60111;48.286;7.812;2023-08-12T00:23:14;5.70;;;3.58;;
72205;SDS011;60111;48.286;7.812;2023-08-12T00:25:48;5.65;;;3.92;;
72205;SDS011;60111;48.286;7.812;2023-08-12T00:28:21;5.33;;;3.52;;
72205;SDS011;60111;48.286;7.812;2023-08-12T00:30:54;5.30;;;3.83;;
72205;SDS011;60111;48.286;7.812;2023-08-12T00:36:18;6.97;;;4.30;;
72205;SDS011;60111;48.286;7.812;2023-08-12T00:38:50;5.33;;;4.13;;
72205;SDS011;60111;48.286;7.812;2023-08-12T00:41:23;5.42;;;4.10;;
72205;SDS011;60111;48.286;7.812;2023-08-12T00:43:56;4.37;;;3.97;;
72205;SDS011;60111;48.286;7.812;2023-08-12T00:46:28;6.75;;;3.92;;
72205;SDS011;60111;48.286;7.812;2023-08-12T00:49:01;5.87;;;3.77;;
72205;SDS011;60111;48.286;7.812;2023-08-12T00:51:34;4.10;;;3.70;;
72205;SDS011;60111;48.286;7.812;2023-08-12T00:54:08;4.53;;;3.55;;
72205;SDS011;60111;48.286;7.812;2023-08-12T00:56:42;4.30;;;3.90;;
72205;SDS011;60111;48.286;7.812;2023-08-12T00:59:17;7.05;;;4.50;;
72205;SDS011;60111;48.286;7.812;2023-08-12T01:01:51;5.58;;;3.83;;
72205;SDS011;60111;48.286;7.812;2023-08-12T01:04:24;4.78;;;3.90;;
72205;SDS011;60111;48.286;7.812;2023-08-12T01:06:56;6.33;;;4.33;;
72205;SDS011;60111;48.286;7.812;2023-08-12T01:09:29;4.87;;;3.80;;
72205;SDS011;60111;48.286;7.812;2023-08-12T01:12:06;4.30;;;3.60;;
72205;SDS011;60111;48.286;7.812;2023-08-12T01:17:40;4.53;;;3.33;;
72205;SDS011;60111;48.286;7.812;2023-08-12T01:20:14;4.58;;;3.95;;
72205;SDS011;60111;48.286;7.812;2023-08-12T01:22:47;4.90;;;3.72;;
72205;SDS011;60111;48.286;7.812;2023-08-12T01:25:21;3.70;;;3.40;;
72205;SDS011;60111;48.286;7.812;2023-08-12T01:27:55;5.67;;;3.70;;
72205;SDS011;60111;48.286;7.812;2023-08-12T01:30:28;4.97;;;3.97;;
72205;SDS011;60111;48.286;7.812;2023-08-12T01:33:01;4.22;;;3.65;;
72205;SDS011;60111;48.286;7.812;2023-08-12T01:35:39;6.42;;;4.00;;
72205;SDS011;60111;48.286;7.812;2023-08-12T01:38:12;4.03;;;3.33;;
72205;SDS011;60111;48.286;7.812;2023-08-12T01:40:45;5.00;;;3.93;;
72205;SDS011;60111;48.286;7.812;2023-08-12T01:43:18;4.00;;;3.27;;
72205;SDS011;60111;48.286;7.812;2023-08-12T01:45:51;5.08;;;4.05;;
72205;SDS011;60111;48.286;7.812;2023-08-12T01:48:24;4.10;;;3.55;;
72205;SDS011;60111;48.286;7.812;2023-08-12T01:50:57;4.47;;;3.52;;
72205;SDS011;60111;48.286;7.812;2023-08-12T01:53:29;7.47;;;3.70;;
72205;SDS011;60111;48.286;7.812;2023-08-12T01:56:02;4.20;;;3.80;;
72205;SDS011;60111;48.286;7.812;2023-08-12T01:58:35;5.20;;;3.80;;
72205;SDS011;60111;48.286;7.812;2023-08-12T02:01:07;4.35;;;3.83;;
72205;SDS011;60111;48.286;7.812;2023-08-12T02:03:40;4.90;;;4.07;;
72205;SDS011;60111;48.286;7.812;2023-08-12T02:06:12;4.65;;;3.77;;
72205;SDS011;60111;48.286;7.812;2023-08-12T02:08:45;5.72;;;3.85;;
72205;SDS011;60111;48.286;7.812;2023-08-12T02:11:18;4.58;;;3.95;;
72205;SDS011;60111;48.286;7.812;2023-08-12T02:13:50;6.50;;;3.72;;
72205;SDS011;60111;48.286;7.812;2023-08-12T02:16:23;7.08;;;3.70;;
72205;SDS011;60111;48.286;7.812;2023-08-12T02:18:55;4.75;;;3.40;;
72205;SDS011;60111;48.286;7.812;2023-08-12T02:21:28;4.93;;;3.63;;
72205;SDS011;60111;48.286;7.812;2023-08-12T02:24:00;5.50;;;3.70;;
72205;SDS011;60111;48.286;7.812;2023-08-12T02:26:33;5.13;;;3.70;;
72205;SDS011;60111;48.286;7.812;2023-08-12T02:29:06;5.35;;;3.72;;
72205;SDS011;60111;48.286;7.812;2023-08-12T02:31:38;4.87;;;3.42;;
72205;SDS011;60111;48.286;7.812;2023-08-12T02:34:11;5.95;;;3.58;;
72205;SDS011;60111;48.286;7.812;2023-08-12T02:36:43;5.30;;;3.52;;
72205;SDS011;60111;48.286;7.812;2023-08-12T02:39:16;4.37;;;3.50;;
72205;SDS011;60111;48.286;7.812;2023-08-12T02:41:48;5.20;;;3.65;;
72205;SDS011;60111;48.286;7.812;2023-08-12T02:44:22;5.13;;;3.67;;
72205;SDS011;60111;48.286;7.812;2023-08-12T02:46:54;3.97;;;3.57;;
72205;SDS011;60111;48.286;7.812;2023-08-12T02:49:27;5.55;;;3.95;;
72205;SDS011;60111;48.286;7.812;2023-08-12T02:51:59;4.35;;;3.37;;
72205;SDS011;60111;48.286;7.812;2023-08-12T02:54:32;6.27;;;3.90;;
72205;SDS011;60111;48.286;7.812;2023-08-12T02:57:05;6.40;;;3.95;;
72205;SDS011;60111;48.286;7.812;2023-08-12T02:59:37;5.72;;;3.60;;
72205;SDS011;60111;48.286;7.812;2023-08-12T03:02:10;5.35;;;3.87;;
72205;SDS011;60111;48.286;7.812;2023-08-12T03:04:42;5.03;;;4.25;;
72205;SDS011;60111;48.286;7.812;2023-08-12T03:07:15;4.83;;;3.85;;
72205;SDS011;60111;48.286;7.812;2023-08-12T03:09:47;4.83;;;3.77;;
72205;SDS011;60111;48.286;7.812;2023-08-12T03:12:20;8.48;;;3.47;;
72205;SDS011;60111;48.286;7.812;2023-08-12T03:14:53;5.78;;;4.12;;
72205;SDS011;60111;48.286;7.812;2023-08-12T03:17:25;4.15;;;3.45;;
72205;SDS011;60111;48.286;7.812;2023-08-12T03:19:58;4.17;;;3.55;;
72205;SDS011;60111;48.286;7.812;2023-08-12T03:22:30;4.35;;;3.65;;
72205;SDS011;60111;48.286;7.812;2023-08-12T03:25:03;5.83;;;3.72;;
72205;SDS011;60111;48.286;7.812;2023-08-12T03:27:37;5.87;;;3.70;;
72205;SDS011;60111;48.286;7.812;2023-08-12T03:30:10;8.38;;;3.47;;
72205;SDS011;60111;48.286;7.812;2023-08-12T03:32:43;4.50;;;3.60;;
72205;SDS011;60111;48.286;7.812;2023-08-12T03:35:15;3.50;;;3.20;;
72205;SDS011;60111;48.286;7.812;2023-08-12T03:37:48;5.45;;;3.90;;
72205;SDS011;60111;48.286;7.812;2023-08-12T03:40:22;4.87;;;4.00;;
72205;SDS011;60111;48.286;7.812;2023-08-12T03:42:54;3.85;;;3.33;;
72205;SDS011;60111;48.286;7.812;2023-08-12T03:45:27;5.75;;;4.08;;
72205;SDS011;60111;48.286;7.812;2023-08-12T03:47:59;4.35;;;3.70;;
72205;SDS011;60111;48.286;7.812;2023-08-12T03:50:35;4.00;;;3.70;;
72205;SDS011;60111;48.286;7.812;2023-08-12T03:53:09;6.83;;;3.87;;
72205;SDS011;60111;48.286;7.812;2023-08-12T03:55:42;5.47;;;3.83;;
72205;SDS011;60111;48.286;7.812;2023-08-12T03:58:14;8.75;;;3.33;;
72205;SDS011;60111;48.286;7.812;2023-08-12T04:00:47;4.42;;;3.80;;
72205;SDS011;60111;48.286;7.812;2023-08-12T04:03:20;5.60;;;3.85;;
72205;SDS011;60111;48.286;7.812;2023-08-12T04:05:53;4.40;;;3.60;;
72205;SDS011;60111;48.286;7.812;2023-08-12T04:08:25;8.83;;;4.03;;
72205;SDS011;60111;48.286;7.812;2023-08-12T04:10:58;6.10;;;3.87;;
72205;SDS011;60111;48.286;7.812;2023-08-12T04:13:30;4.70;;;3.80;;
72205;SDS011;60111;48.286;7.812;2023-08-12T04:16:03;5.62;;;3.65;;
72205;SDS011;60111;48.286;7.812;2023-08-12T04:18:36;6.28;;;3.72;;
72205;SDS011;60111;48.286;7.812;2023-08-12T04:21:08;3.80;;;3.50;;
72205;SDS011;60111;48.286;7.812;2023-08-12T04:23:41;10.50;;;3.70;;
72205;SDS011;60111;48.286;7.812;2023-08-12T04:26:14;6.30;;;3.80;;
72205;SDS011;60111;48.286;7.812;2023-08-12T04:28:47;3.75;;;3.33;;
72205;SDS011;60111;48.286;7.812;2023-08-12T04:31:20;6.65;;;3.60;;
72205;SDS011;60111;48.286;7.812;2023-08-12T04:33:53;4.85;;;3.95;;
72205;SDS011;60111;48.286;7.812;2023-08-12T04:36:25;4.50;;;3.80;;
72205;SDS011;60111;48.286;7.812;2023-08-12T04:38:58;4.17;;;3.58;;
72205;SDS011;60111;48.286;7.812;2023-08-12T04:41:30;6.97;;;3.90;;
72205;SDS011;60111;48.286;7.812;2023-08-12T04:44:04;5.20;;;3.83;;
72205;SDS011;60111;48.286;7.812;2023-08-12T04:46:37;7.35;;;3.62;;
72205;SDS011;60111;48.286;7.812;2023-08-12T04:49:10;5.10;;;3.27;;
72205;SDS011;60111;48.286;7.812;2023-08-12T04:51:42;6.62;;;4.10;;
72205;SDS011;60111;48.286;7.812;2023-08-12T04:54:15;7.40;;;3.95;;
72205;SDS011;60111;48.286;7.812;2023-08-12T04:56:47;6.22;;;3.92;;
72205;SDS011;60111;48.286;7.812;2023-08-12T04:59:20;5.78;;;4.20;;
72205;SDS011;60111;48.286;7.812;2023-08-12T05:01:53;6.37;;;4.17;;
72205;SDS011;60111;48.286;7.812;2023-08-12T05:04:25;6.90;;;3.80;;
72205;SDS011;60111;48.286;7.812;2023-08-12T05:06:58;8.18;;;4.00;;
72205;SDS011;60111;48.286;7.812;2023-08-12T05:09:31;5.90;;;4.00;;
72205;SDS011;60111;48.286;7.812;2023-08-12T05:12:05;5.50;;;4.00;;
72205;SDS011;60111;48.286;7.812;2023-08-12T05:14:38;5.17;;;3.60;;
72205;SDS011;60111;48.286;7.812;2023-08-12T05:19:43;4.60;;;3.47;;
72205;SDS011;60111;48.286;7.812;2023-08-12T05:22:16;5.08;;;3.87;;
72205;SDS011;60111;48.286;7.812;2023-08-12T05:24:49;7.53;;;3.67;;
72205;SDS011;60111;48.286;7.812;2023-08-12T05:27:21;6.00;;;4.05;;
72205;SDS011;60111;48.286;7.812;2023-08-12T05:29:54;5.25;;;3.50;;
72205;SDS011;60111;48.286;7.812;2023-08-12T05:32:26;6.75;;;3.67;;
72205;SDS011;60111;48.286;7.812;2023-08-12T05:34:59;4.80;;;3.70;;
72205;SDS011;60111;48.286;7.812;2023-08-12T05:37:31;4.90;;;3.57;;
72205;SDS011;60111;48.286;7.812;2023-08-12T05:40:04;5.72;;;3.60;;
72205;SDS011;60111;48.286;7.812;2023-08-12T05:42:39;6.12;;;3.85;;
72205;SDS011;60111;48.286;7.812;2023-08-12T05:45:11;4.30;;;3.90;;
72205;SDS011;60111;48.286;7.812;2023-08-12T05:47:44;5.65;;;4.40;;
72205;SDS011;60111;48.286;7.812;2023-08-12T05:50:16;5.60;;;3.80;;
72205;SDS011;60111;48.286;7.812;2023-08-12T05:52:49;5.87;;;4.40;;
72205;SDS011;60111;48.286;7.812;2023-08-12T05:55:21;6.33;;;4.22;;
72205;SDS011;60111;48.286;7.812;2023-08-12T05:57:54;7.03;;;4.08;;
72205;SDS011;60111;48.286;7.812;2023-08-12T06:00:27;5.30;;;4.00;;
72205;SDS011;60111;48.286;7.812;2023-08-12T06:02:59;5.33;;;4.77;;
72205;SDS011;60111;48.286;7.812;2023-08-12T06:05:32;6.10;;;4.25;;
72205;SDS011;60111;48.286;7.812;2023-08-12T06:08:05;5.58;;;3.90;;
72205;SDS011;60111;48.286;7.812;2023-08-12T06:10:37;12.33;;;5.60;;
72205;SDS011;60111;48.286;7.812;2023-08-12T06:13:10;7.72;;;4.80;;
72205;SDS011;60111;48.286;7.812;2023-08-12T06:15:43;6.33;;;4.80;;
72205;SDS011;60111;48.286;7.812;2023-08-12T06:18:15;5.47;;;4.03;;
72205;SDS011;60111;48.286;7.812;2023-08-12T06:20:48;5.10;;;3.85;;
72205;SDS011;60111;48.286;7.812;2023-08-12T06:23:20;7.58;;;4.78;;
72205;SDS011;60111;48.286;7.812;2023-08-12T06:25:53;5.87;;;4.78;;
72205;SDS011;60111;48.286;7.812;2023-08-12T06:28:26;8.27;;;4.83;;
72205;SDS011;60111;48.286;7.812;2023-08-12T06:30:58;6.58;;;4.53;;
72205;SDS011;60111;48.286;7.812;2023-08-12T06:33:31;5.17;;;4.03;;
72205;SDS011;60111;48.286;7.812;2023-08-12T06:36:04;5.25;;;3.60;;
72205;SDS011;60111;48.286;7.812;2023-08-12T06:38:37;5.10;;;3.30;;
72205;SDS011;60111;48.286;7.812;2023-08-12T06:41:09;4.65;;;3.42;;
72205;SDS011;60111;48.286;7.812;2023-08-12T06:43:42;6.00;;;3.17;;
72205;SDS011;60111;48.286;7.812;2023-08-12T06:46:14;5.50;;;3.20;;
72205;SDS011;60111;48.286;7.812;2023-08-12T06:48:47;4.35;;;3.60;;
72205;SDS011;60111;48.286;7.812;2023-08-12T06:51:20;5.47;;;3.70;;
72205;SDS011;60111;48.286;7.812;2023-08-12T06:53:53;4.40;;;3.83;;
72205;SDS011;60111;48.286;7.812;2023-08-12T06:56:25;6.55;;;3.62;;
72205;SDS011;60111;48.286;7.812;2023-08-12T06:58:58;4.92;;;3.70;;
72205;SDS011;60111;48.286;7.812;2023-08-12T07:01:31;4.10;;;3.70;;
72205;SDS011;60111;48.286;7.812;2023-08-12T07:04:03;9.90;;;4.03;;
72205;SDS011;60111;48.286;7.812;2023-08-12T07:06:36;5.22;;;3.77;;
72205;SDS011;60111;48.286;7.812;2023-08-12T07:09:09;8.33;;;3.23;;
72205;SDS011;60111;48.286;7.812;2023-08-12T07:11:41;7.83;;;3.87;;
72205;SDS011;60111;48.286;7.812;2023-08-12T07:14:14;5.58;;;3.70;;
72205;SDS011;60111;48.286;7.812;2023-08-12T07:16:46;6.80;;;3.42;;
72205;SDS011;60111;48.286;7.812;2023-08-12T07:19:19;5.40;;;3.62;;
72205;SDS011;60111;48.286;7.812;2023-08-12T07:21:51;5.53;;;3.52;;
72205;SDS011;60111;48.286;7.812;2023-08-12T07:24:24;5.95;;;3.72;;
72205;SDS011;60111;48.286;7.812;2023-08-12T07:26:57;5.97;;;3.70;;
72205;SDS011;60111;48.286;7.812;2023-08-12T07:29:29;6.95;;;3.85;;
72205;SDS011;60111;48.286;7.812;2023-08-12T07:32:02;8.20;;;3.03;;
72205;SDS011;60111;48.286;7.812;2023-08-12T07:34:35;5.57;;;3.20;;
72205;SDS011;60111;48.286;7.812;2023-08-12T07:37:07;6.22;;;3.83;;
72205;SDS011;60111;48.286;7.812;2023-08-12T07:39:40;4.45;;;3.37;;
72205;SDS011;60111;48.286;7.812;2023-08-12T07:42:13;7.53;;;3.70;;
72205;SDS011;60111;48.286;7.812;2023-08-12T07:44:45;7.33;;;3.70;;
72205;SDS011;60111;48.286;7.812;2023-08-12T07:47:19;9.10;;;4.07;;
72205;SDS011;60111;48.286;7.812;2023-08-12T07:49:51;5.28;;;3.72;;
72205;SDS011;60111;48.286;7.812;2023-08-12T07:52:24;5.30;;;3.75;;
72205;SDS011;60111;48.286;7.812;2023-08-12T07:54:56;3.98;;;3.40;;
72205;SDS011;60111;48.286;7.812;2023-08-12T07:57:29;8.85;;;3.60;;
72205;SDS011;60111;48.286;7.812;2023-08-12T08:00:01;10.08;;;3.40;;
72205;SDS011;60111;48.286;7.812;2023-08-12T08:02:35;7.73;;;3.50;;
72205;SDS011;60111;48.286;7.812;2023-08-12T08:05:08;4.28;;;3.30;;
72205;SDS011;60111;48.286;7.812;2023-08-12T08:07:40;3.95;;;3.20;;
72205;SDS011;60111;48.286;7.812;2023-08-12T08:10:13;6.83;;;3.72;;
72205;SDS011;60111;48.286;7.812;2023-08-12T08:12:45;4.37;;;3.50;;
72205;SDS011;60111;48.286;7.812;2023-08-12T08:15:18;5.03;;;3.93;;
72205;SDS011;60111;48.286;7.812;2023-08-12T08:17:51;4.87;;;3.50;;
72205;SDS011;60111;48.286;7.812;2023-08-12T08:20:23;6.47;;;4.00;;
72205;SDS011;60111;48.286;7.812;2023-08-12T08:22:56;4.47;;;3.40;;
72205;SDS011;60111;48.286;7.812;2023-08-12T08:25:28;5.12;;;3.00;;
72205;SDS011;60111;48.286;7.812;2023-08-12T08:28:01;8.10;;;3.25;;
72205;SDS011;60111;48.286;7.812;2023-08-12T08:30:34;4.42;;;3.47;;
72205;SDS011;60111;48.286;7.812;2023-08-12T08:33:06;5.12;;;3.47;;
72205;SDS011;60111;48.286;7.812;2023-08-12T08:35:39;5.20;;;3.40;;
72205;SDS011;60111;48.286;7.812;2023-08-12T08:38:12;4.65;;;3.58;;
72205;SDS011;60111;48.286;7.812;2023-08-12T08:40:45;4.90;;;3.15;;
72205;SDS011;60111;48.286;7.812;2023-08-12T08:43:20;8.85;;;3.67;;
72205;SDS011;60111;48.286;7.812;2023-08-12T08:45:55;6.10;;;3.83;;
72205;SDS011;60111;48.286;7.812;2023-08-12T08:48:29;5.30;;;3.92;;
72205;SDS011;60111;48.286;7.812;2023-08-12T08:51:02;6.77;;;3.90;;
72205;SDS011;60111;48.286;7.812;2023-08-12T08:53:40;6.25;;;3.90;;
72205;SDS011;60111;48.286;7.812;2023-08-12T08:56:13;7.60;;;3.27;;
72205;SDS011;60111;48.286;7.812;2023-08-12T08:58:46;5.12;;;2.83;;
72205;SDS011;60111;48.286;7.812;2023-08-12T09:01:19;5.03;;;3.50;;
72205;SDS011;60111;48.286;7.812;2023-08-12T09:03:53;4.78;;;3.25;;
72205;SDS011;60111;48.286;7.812;2023-08-12T09:06:26;3.97;;;3.10;;
72205;SDS011;60111;48.286;7.812;2023-08-12T09:09:01;4.45;;;3.15;;
72205;SDS011;60111;48.286;7.812;2023-08-12T09:11:37;6.95;;;3.58;;
72205;SDS011;60111;48.286;7.812;2023-08-12T09:14:11;3.77;;;2.73;;
72205;SDS011;60111;48.286;7.812;2023-08-12T09:16:44;4.60;;;3.30;;
72205;SDS011;60111;48.286;7.812;2023-08-12T09:19:16;3.65;;;3.20;;
72205;SDS011;60111;48.286;7.812;2023-08-12T09:21:52;4.80;;;3.30;;
72205;SDS011;60111;48.286;7.812;2023-08-12T09:24:26;3.50;;;3.17;;
72205;SDS011;60111;48.286;7.812;2023-08-12T09:27:00;4.45;;;3.58;;
72205;SDS011;60111;48.286;7.812;2023-08-12T09:29:33;4.35;;;3.20;;
72205;SDS011;60111;48.286;7.812;2023-08-12T09:34:47;5.30;;;2.90;;
72205;SDS011;60111;48.286;7.812;2023-08-12T09:37:23;4.20;;;3.02;;
72205;SDS011;60111;48.286;7.812;2023-08-12T09:39:56;4.42;;;3.17;;
72205;SDS011;60111;48.286;7.812;2023-08-12T09:42:29;6.17;;;3.13;;
72205;SDS011;60111;48.286;7.812;2023-08-12T09:45:02;6.05;;;3.00;;
72205;SDS011;60111;48.286;7.812;2023-08-12T09:47:34;3.35;;;2.95;;
72205;SDS011;60111;48.286;7.812;2023-08-12T09:50:07;7.87;;;3.20;;
72205;SDS011;60111;48.286;7.812;2023-08-12T09:52:41;3.87;;;2.70;;
72205;SDS011;60111;48.286;7.812;2023-08-12T09:55:15;4.60;;;2.83;;
72205;SDS011;60111;48.286;7.812;2023-08-12T09:57:52;2.67;;;2.40;;
72205;SDS011;60111;48.286;7.812;2023-08-12T10:00:25;3.67;;;2.58;;
72205;SDS011;60111;48.286;7.812;2023-08-12T10:02:58;3.70;;;2.60;;
72205;SDS011;60111;48.286;7.812;2023-08-12T10:05:32;7.70;;;2.70;;
72205;SDS011;60111;48.286;7.812;2023-08-12T10:08:05;4.70;;;2.87;;
72205;SDS011;60111;48.286;7.812;2023-08-12T10:10:40;3.80;;;2.33;;
72205;SDS011;60111;48.286;7.812;2023-08-12T10:13:14;6.83;;;2.87;;
72205;SDS011;60111;48.286;7.812;2023-08-12T10:15:48;3.30;;;2.67;;
72205;SDS011;60111;48.286;7.812;2023-08-12T10:18:22;2.90;;;2.40;;
72205;SDS011;60111;48.286;7.812;2023-08-12T10:23:29;3.30;;;2.45;;
72205;SDS011;60111;48.286;7.812;2023-08-12T10:26:02;3.37;;;2.57;;
72205;SDS011;60111;48.286;7.812;2023-08-12T10:28:38;4.05;;;2.87;;
72205;SDS011;60111;48.286;7.812;2023-08-12T10:33:43;5.87;;;2.65;;
72205;SDS011;60111;48.286;7.812;2023-08-12T10:36:18;5.90;;;2.92;;
72205;SDS011;60111;48.286;7.812;2023-08-12T10:38:52;5.33;;;2.90;;
72205;SDS011;60111;48.286;7.812;2023-08-12T10:41:25;3.10;;;2.70;;
72205;SDS011;60111;48.286;7.812;2023-08-12T10:43:59;5.90;;;2.63;;
72205;SDS011;60111;48.286;7.812;2023-08-12T10:46:35;4.00;;;2.83;;
72205;SDS011;60111;48.286;7.812;2023-08-12T10:49:09;3.90;;;2.80;;
72205;SDS011;60111;48.286;7.812;2023-08-12T10:54:28;3.87;;;2.77;;
72205;SDS011;60111;48.286;7.812;2023-08-12T11:02:25;3.80;;;2.77;;
72205;SDS011;60111;48.286;7.812;2023-08-12T11:07:41;4.97;;;2.90;;
72205;SDS011;60111;48.286;7.812;2023-08-12T11:10:16;4.90;;;2.50;;
72205;SDS011;60111;48.286;7.812;2023-08-12T11:15:37;5.37;;;2.60;;
72205;SDS011;60111;48.286;7.812;2023-08-12T11:18:13;7.42;;;2.85;;
72205;SDS011;60111;48.286;7.812;2023-08-12T11:20:50;3.10;;;2.80;;
72205;SDS011;60111;48.286;7.812;2023-08-12T11:23:23;8.57;;;3.00;;
72205;SDS011;60111;48.286;7.812;2023-08-12T11:25:56;6.75;;;2.92;;
72205;SDS011;60111;48.286;7.812;2023-08-12T11:31:02;4.00;;;2.77;;
72205;SDS011;60111;48.286;7.812;2023-08-12T11:33:35;5.20;;;3.00;;
72205;SDS011;60111;48.286;7.812;2023-08-12T11:36:07;5.97;;;3.10;;
72205;SDS011;60111;48.286;7.812;2023-08-12T11:38:40;4.62;;;2.95;;
72205;SDS011;60111;48.286;7.812;2023-08-12T11:43:47;3.72;;;2.77;;
72205;SDS011;60111;48.286;7.812;2023-08-12T11:46:20;6.03;;;2.85;;
72205;SDS011;60111;48.286;7.812;2023-08-12T11:48:52;5.35;;;3.08;;
72205;SDS011;60111;48.286;7.812;2023-08-12T11:51:25;3.10;;;2.50;;
72205;SDS011;60111;48.286;7.812;2023-08-12T11:53:57;4.60;;;2.62;;
72205;SDS011;60111;48.286;7.812;2023-08-12T11:56:30;7.60;;;3.00;;
72205;SDS011;60111;48.286;7.812;2023-08-12T11:59:03;7.90;;;2.80;;
72205;SDS011;60111;48.286;7.812;2023-08-12T12:01:36;4.87;;;2.80;;
72205;SDS011;60111;48.286;7.812;2023-08-12T12:04:09;3.50;;;2.53;;
72205;SDS011;60111;48.286;7.812;2023-08-12T12:06:42;7.10;;;3.02;;
72205;SDS011;60111;48.286;7.812;2023-08-12T12:09:15;5.08;;;3.08;;
72205;SDS011;60111;48.286;7.812;2023-08-12T12:11:51;5.05;;;2.75;;
72205;SDS011;60111;48.286;7.812;2023-08-12T12:14:28;5.50;;;2.85;;
72205;SDS011;60111;48.286;7.812;2023-08-12T12:19:34;5.53;;;2.50;;
72205;SDS011;60111;48.286;7.812;2023-08-12T12:22:06;4.50;;;2.58;;
72205;SDS011;60111;48.286;7.812;2023-08-12T12:24:45;5.20;;;2.72;;
72205;SDS011;60111;48.286;7.812;2023-08-12T12:27:18;3.23;;;2.50;;
72205;SDS011;60111;48.286;7.812;2023-08-12T12:29:52;3.55;;;2.70;;
72205;SDS011;60111;48.286;7.812;2023-08-12T12:32:25;4.50;;;2.80;;
72205;SDS011;60111;48.286;7.812;2023-08-12T12:34:58;5.78;;;2.40;;
72205;SDS011;60111;48.286;7.812;2023-08-12T12:37:30;5.00;;;2.70;;
72205;SDS011;60111;48.286;7.812;2023-08-12T12:40:04;4.87;;;2.75;;
72205;SDS011;60111;48.286;7.812;2023-08-12T12:42:37;5.70;;;2.77;;
72205;SDS011;60111;48.286;7.812;2023-08-12T12:45:10;3.80;;;2.40;;
72205;SDS011;60111;48.286;7.812;2023-08-12T12:47:43;4.13;;;2.70;;
72205;SDS011;60111;48.286;7.812;2023-08-12T12:50:15;3.67;;;2.30;;
72205;SDS011;60111;48.286;7.812;2023-08-12T12:52:48;4.78;;;2.60;;
72205;SDS011;60111;48.286;7.812;2023-08-12T12:55:20;5.78;;;2.37;;
72205;SDS011;60111;48.286;7.812;2023-08-12T12:57:54;5.17;;;2.35;;
72205;SDS011;60111;48.286;7.812;2023-08-12T13:00:26;4.12;;;2.83;;
72205;SDS011;60111;48.286;7.812;2023-08-12T13:02:59;3.50;;;2.27;;
72205;SDS011;60111;48.286;7.812;2023-08-12T13:05:31;3.30;;;2.40;;
72205;SDS011;60111;48.286;7.812;2023-08-12T13:08:04;4.60;;;2.02;;
72205;SDS011;60111;48.286;7.812;2023-08-12T13:10:37;4.20;;;2.40;;
72205;SDS011;60111;48.286;7.812;2023-08-12T13:13:09;2.70;;;2.33;;
72205;SDS011;60111;48.286;7.812;2023-08-12T13:15:44;3.83;;;2.52;;
72205;SDS011;60111;48.286;7.812;2023-08-12T13:18:18;4.75;;;2.15;;
72205;SDS011;60111;48.286;7.812;2023-08-12T13:20:51;3.42;;;2.33;;
72205;SDS011;60111;48.286;7.812;2023-08-12T13:23:24;4.65;;;2.67;;
72205;SDS011;60111;48.286;7.812;2023-08-12T13:25:56;5.12;;;2.30;;
72205;SDS011;60111;48.286;7.812;2023-08-12T13:28:29;4.37;;;2.55;;
72205;SDS011;60111;48.286;7.812;2023-08-12T13:31:01;3.98;;;2.30;;
72205;SDS011;60111;48.286;7.812;2023-08-12T13:33:34;9.05;;;2.85;;
72205;SDS011;60111;48.286;7.812;2023-08-12T13:36:07;4.27;;;2.33;;
72205;SDS011;60111;48.286;7.812;2023-08-12T13:38:39;5.10;;;2.40;;
72205;SDS011;60111;48.286;7.812;2023-08-12T13:41:12;3.83;;;2.87;;
72205;SDS011;60111;48.286;7.812;2023-08-12T13:43:45;4.50;;;2.63;;
72205;SDS011;60111;48.286;7.812;2023-08-12T13:46:17;8.15;;;2.90;;
72205;SDS011;60111;48.286;7.812;2023-08-12T13:48:50;4.37;;;2.70;;
72205;SDS011;60111;48.286;7.812;2023-08-12T13:51:22;3.33;;;2.60;;
72205;SDS011;60111;48.286;7.812;2023-08-12T13:53:55;4.97;;;2.87;;
72205;SDS011;60111;48.286;7.812;2023-08-12T13:56:27;5.42;;;2.45;;
72205;SDS011;60111;48.286;7.812;2023-08-12T13:59:00;7.13;;;2.40;;
72205;SDS011;60111;48.286;7.812;2023-08-12T14:01:32;6.75;;;2.83;;
72205;SDS011;60111;48.286;7.812;2023-08-12T14:04:06;4.70;;;2.53;;
72205;SDS011;60111;48.286;7.812;2023-08-12T14:06:38;5.22;;;2.72;;
72205;SDS011;60111;48.286;7.812;2023-08-12T14:09:11;5.10;;;2.70;;
72205;SDS011;60111;48.286;7.812;2023-08-12T14:11:44;3.72;;;2.58;;
72205;SDS011;60111;48.286;7.812;2023-08-12T14:14:17;4.87;;;2.83;;
72205;SDS011;60111;48.286;7.812;2023-08-12T14:16:50;4.10;;;2.62;;
72205;SDS011;60111;48.286;7.812;2023-08-12T14:19:22;4.60;;;2.83;;
72205;SDS011;60111;48.286;7.812;2023-08-12T14:21:55;5.15;;;2.85;;
72205;SDS011;60111;48.286;7.812;2023-08-12T14:24:27;5.17;;;2.98;;
72205;SDS011;60111;48.286;7.812;2023-08-12T14:27:00;5.03;;;2.90;;
72205;SDS011;60111;48.286;7.812;2023-08-12T14:29:32;7.20;;;3.20;;
72205;SDS011;60111;48.286;7.812;2023-08-12T14:32:05;8.50;;;2.87;;
72205;SDS011;60111;48.286;7.812;2023-08-12T14:34:38;7.45;;;3.20;;
72205;SDS011;60111;48.286;7.812;2023-08-12T14:37:10;5.72;;;3.20;;
72205;SDS011;60111;48.286;7.812;2023-08-12T14:39:43;7.10;;;3.07;;
72205;SDS011;60111;48.286;7.812;2023-08-12T14:42:16;6.25;;;2.95;;
72205;SDS011;60111;48.286;7.812;2023-08-12T14:44:48;4.30;;;3.27;;
72205;SDS011;60111;48.286;7.812;2023-08-12T14:47:21;6.10;;;3.37;;
72205;SDS011;60111;48.286;7.812;2023-08-12T14:49:54;6.95;;;3.20;;
72205;SDS011;60111;48.286;7.812;2023-08-12T14:52:27;9.90;;;3.20;;
72205;SDS011;60111;48.286;7.812;2023-08-12T14:55:00;6.65;;;3.47;;
72205;SDS011;60111;48.286;7.812;2023-08-12T14:57:33;7.95;;;3.02;;
72205;SDS011;60111;48.286;7.812;2023-08-12T15:00:06;5.62;;;2.75;;
72205;SDS011;60111;48.286;7.812;2023-08-12T15:02:41;7.73;;;3.60;;
72205;SDS011;60111;48.286;7.812;2023-08-12T15:05:13;5.58;;;3.17;;
72205;SDS011;60111;48.286;7.812;2023-08-12T15:07:46;7.20;;;3.17;;
72205;SDS011;60111;48.286;7.812;2023-08-12T15:10:19;7.55;;;3.25;;
72205;SDS011;60111;48.286;7.812;2023-08-12T15:12:51;6.78;;;3.05;;
72205;SDS011;60111;48.286;7.812;2023-08-12T15:15:24;5.60;;;3.17;;
72205;SDS011;60111;48.286;7.812;2023-08-12T15:17:56;4.55;;;3.20;;
72205;SDS011;60111;48.286;7.812;2023-08-12T15:20:31;8.05;;;3.35;;
72205;SDS011;60111;48.286;7.812;2023-08-12T15:23:03;6.83;;;3.27;;
72205;SDS011;60111;48.286;7.812;2023-08-12T15:25:36;6.37;;;3.03;;
72205;SDS011;60111;48.286;7.812;2023-08-12T15:28:08;5.87;;;2.75;;
72205;SDS011;60111;48.286;7.812;2023-08-12T15:30:41;5.40;;;3.50;;
72205;SDS011;60111;48.286;7.812;2023-08-12T15:33:14;6.10;;;3.70;;
72205;SDS011;60111;48.286;7.812;2023-08-12T15:35:47;5.53;;;3.60;;
72205;SDS011;60111;48.286;7.812;2023-08-12T15:38:20;4.80;;;3.85;;
72205;SDS011;60111;48.286;7.812;2023-08-12T15:40:52;5.67;;;3.27;;
72205;SDS011;60111;48.286;7.812;2023-08-12T15:43:25;11.83;;;3.47;;
72205;SDS011;60111;48.286;7.812;2023-08-12T15:45:58;4.77;;;2.87;;
72205;SDS011;60111;48.286;7.812;2023-08-12T15:48:30;6.20;;;2.70;;
72205;SDS011;60111;48.286;7.812;2023-08-12T15:51:03;7.87;;;3.10;;
72205;SDS011;60111;48.286;7.812;2023-08-12T15:53:36;5.58;;;2.87;;
72205;SDS011;60111;48.286;7.812;2023-08-12T15:56:08;4.55;;;2.77;;
72205;SDS011;60111;48.286;7.812;2023-08-12T15:58:41;6.25;;;3.02;;